^^
NorthLandsweather Station Historical Data
 
Daily Summary for April 21, 2019 Units:  English    Metric   Both
Daily Weekly Monthly Yearly Custom
  Current: High: Low: Average:
Temperature: 46.6 °F 47.1 °F 42.5 °F 44.4 °F
Dew Point: 35.1 °F 38.5 °F 34.4 °F 37 °F
Humidity: 64% 81% 62% 75%
Wind Speed: 3.5mph 4.6mph 0.0mph 0.3mph
Wind Gust: 0.5mph 1.1mph - -
WindNNE - - East
Pressure: 29.84 in 29.84 in 29.77 in -
Precipitation: 0.00 in      
Historical Graphs
 
 
Tabular Data for April 21, 2019
Time Temperature Dew Point Pressure Wind Wind Speed Wind Gust Humidity Rainfall Rate (Hourly) solar
00:04 46.0 °F 37.8 °F 29.77 in Calm     73% 0.00 in 0.00 W/m2
00:09 45.8 °F 37.6 °F 29.77 in Calm     73% 0.00 in 0.00 W/m2
00:14 45.7 °F 37.5 °F 29.77 in Calm     73% 0.00 in 0.00 W/m2
00:19 45.6 °F 37.4 °F 29.77 in Calm     73% 0.00 in 0.00 W/m2
00:24 45.2 °F 37.4 °F 29.77 in Calm     74% 0.00 in 0.00 W/m2
00:29 44.7 °F 37.3 °F 29.77 in Calm     75% 0.00 in 0.00 W/m2
00:34 44.4 °F 37.3 °F 29.77 in Calm     76% 0.00 in 0.00 W/m2
00:39 44.4 °F 37.3 °F 29.77 in Calm     76% 0.00 in 0.00 W/m2
00:44 44.4 °F 37.3 °F 29.78 in Calm     76% 0.00 in 0.00 W/m2
00:49 44.3 °F 37.2 °F 29.77 in Calm     76% 0.00 in 0.00 W/m2
00:54 44.3 °F 37.2 °F 29.78 in Calm     76% 0.00 in 0.00 W/m2
00:59 44.1 °F 37.0 °F 29.78 in Calm     76% 0.00 in 0.00 W/m2
01:04 44.0 °F 36.9 °F 29.78 in Calm     76% 0.00 in 0.00 W/m2
01:09 44.0 °F 37.3 °F 29.79 in Calm     77% 0.00 in 0.00 W/m2
01:14 43.7 °F 37.0 °F 29.79 in Calm     77% 0.00 in 0.00 W/m2
01:19 43.5 °F 37.1 °F 29.80 in Calm     78% 0.00 in 0.00 W/m2
01:24 43.1 °F 37.0 °F 29.79 in SSW 2.3 mph 0.5 mph 79% 0.00 in 0.00 W/m2
01:29 43.1 °F 37.0 °F 29.79 in Calm     79% 0.00 in 0.00 W/m2
01:34 42.8 °F 36.7 °F 29.80 in SSW 1.2 mph 1.1 mph 79% 0.00 in 0.00 W/m2
01:39 42.7 °F 37.0 °F 29.80 in Calm     80% 0.00 in 0.00 W/m2
01:44 42.6 °F 36.9 °F 29.80 in Calm     80% 0.00 in 0.00 W/m2
01:49 42.5 °F 36.8 °F 29.79 in Calm     80% 0.00 in 0.00 W/m2
01:54 42.7 °F 37.0 °F 29.80 in Calm     80% 0.00 in 0.00 W/m2
01:59 42.6 °F 36.9 °F 29.80 in Calm     80% 0.00 in 0.00 W/m2
02:04 42.6 °F 36.9 °F 29.79 in Calm     80% 0.00 in 0.00 W/m2
02:09 42.7 °F 37.3 °F 29.80 in Calm     81% 0.00 in 0.00 W/m2
02:14 42.9 °F 37.2 °F 29.80 in Calm     80% 0.00 in 0.00 W/m2
02:19 43.1 °F 37.3 °F 29.80 in Calm     80% 0.00 in 0.00 W/m2
02:24 43.1 °F 37.3 °F 29.80 in Calm     80% 0.00 in 0.00 W/m2
02:29 43.3 °F 37.2 °F 29.80 in Calm     79% 0.00 in 0.00 W/m2
02:34 43.3 °F 37.5 °F 29.80 in Calm     80% 0.00 in 0.00 W/m2
02:39 43.4 °F 37.6 °F 29.80 in Calm     80% 0.00 in 0.00 W/m2
02:44 43.6 °F 37.5 °F 29.80 in Calm     79% 0.00 in 0.00 W/m2
02:49 43.7 °F 37.6 °F 29.81 in Calm     79% 0.00 in 0.00 W/m2
02:54 43.8 °F 37.7 °F 29.81 in Calm   0.1 mph 79% 0.00 in 0.00 W/m2
02:59 43.7 °F 37.6 °F 29.81 in Calm     79% 0.00 in 0.00 W/m2
03:04 43.7 °F 37.3 °F 29.81 in Calm     78% 0.00 in 0.00 W/m2
03:09 43.6 °F 37.5 °F 29.81 in Calm     79% 0.00 in 0.00 W/m2
03:14 43.5 °F 37.7 °F 29.82 in Calm   0.1 mph 80% 0.00 in 0.00 W/m2
03:19 43.7 °F 37.9 °F 29.82 in Calm     80% 0.00 in 0.00 W/m2
03:24 44.0 °F 38.2 °F 29.82 in Calm     80% 0.00 in 0.00 W/m2
03:29 44.3 °F 38.5 °F 29.82 in Calm     80% 0.00 in 0.00 W/m2
03:34 44.5 °F 38.4 °F 29.82 in Calm     79% 0.00 in 0.00 W/m2
03:39 44.8 °F 38.4 °F 29.82 in SSW 1.2 mph   78% 0.00 in 0.00 W/m2
03:44 44.9 °F 38.5 °F 29.82 in Calm     78% 0.00 in 0.00 W/m2
03:49 45.1 °F 38.3 °F 29.82 in Calm     77% 0.00 in 0.00 W/m2
03:54 45.2 °F 38.1 °F 29.82 in Calm     76% 0.00 in 0.00 W/m2
03:59 45.2 °F 37.7 °F 29.82 in Calm     75% 0.00 in 0.00 W/m2
04:04 45.3 °F 36.8 °F 29.82 in Calm     72% 0.00 in 0.00 W/m2
04:09 45.4 °F 36.5 °F 29.82 in Calm     71% 0.00 in 0.00 W/m2
04:14 45.6 °F 36.0 °F 29.82 in NNE 1.2 mph 0.1 mph 69% 0.00 in 0.00 W/m2
04:19 45.7 °F 35.0 °F 29.82 in NNE 4.6 mph 0.8 mph 66% 0.00 in 0.00 W/m2
04:24 46.1 °F 35.4 °F 29.82 in NNE 2.3 mph   66% 0.00 in 0.00 W/m2
04:29 46.4 °F 35.7 °F 29.82 in Calm     66% 0.00 in 0.00 W/m2
04:34 46.5 °F 35.0 °F 29.82 in Calm     64% 0.00 in 0.00 W/m2
04:39 46.7 °F 34.4 °F 29.82 in Calm     62% 0.00 in 0.00 W/m2
04:44 46.9 °F 34.6 °F 29.82 in Calm     62% 0.00 in 0.00 W/m2
04:49 47.1 °F 34.7 °F 29.83 in NNE 1.2 mph   62% 0.00 in 0.00 W/m2
04:54 47.1 °F 35.1 °F 29.83 in NNE 1.2 mph   63% 0.00 in 0.00 W/m2
04:59 47.1 °F 35.5 °F 29.83 in Calm     64% 0.00 in 0.00 W/m2
05:04 46.6 °F 35.1 °F 29.84 in NNE 3.5 mph 0.5 mph 64% 0.00 in 0.00 W/m2
Winter, Wisconsin USA
Compliments of Weather Underground - 2 mb